createdAt,value
2022-12-17T00:02:35.000Z,-4.89
2022-12-17T00:07:35.000Z,-4.83
2022-12-17T00:17:34.000Z,-4.84
2022-12-17T00:22:35.000Z,-4.94
2022-12-17T00:27:35.000Z,-4.94
2022-12-17T00:32:34.000Z,-4.96
2022-12-17T00:37:35.000Z,-4.97
2022-12-17T00:42:35.000Z,-4.88
2022-12-17T00:47:35.000Z,-4.84
2022-12-17T00:52:35.000Z,-4.82
2022-12-17T00:57:35.000Z,-5
2022-12-17T01:07:35.000Z,-4.96
2022-12-17T01:12:34.000Z,-4.98
2022-12-17T01:17:34.000Z,-5.11
2022-12-17T01:22:35.000Z,-5.3
2022-12-17T01:27:34.000Z,-5.3
2022-12-17T01:37:34.000Z,-5.36
2022-12-17T01:42:35.000Z,-5.3
2022-12-17T01:47:35.000Z,-5.29
2022-12-17T01:52:35.000Z,-5.32
2022-12-17T01:57:34.000Z,-5.26
2022-12-17T02:02:35.000Z,-5.2
2022-12-17T02:07:35.000Z,-5.2
2022-12-17T02:12:35.000Z,-4.97
2022-12-17T02:17:34.000Z,-4.9
2022-12-17T02:22:34.000Z,-4.91
2022-12-17T02:27:34.000Z,-4.99
2022-12-17T02:32:34.000Z,-5.09
2022-12-17T02:37:35.000Z,-4.97
2022-12-17T02:42:34.000Z,-4.9
2022-12-17T02:47:35.000Z,-5.01
2022-12-17T02:52:34.000Z,-5.08
2022-12-17T02:57:34.000Z,-5.16
2022-12-17T03:02:34.000Z,-4.96
2022-12-17T03:07:34.000Z,-4.81
2022-12-17T03:12:34.000Z,-4.83
2022-12-17T03:22:34.000Z,-4.68
2022-12-17T03:27:35.000Z,-4.54
2022-12-17T03:32:34.000Z,-4.76
2022-12-17T03:37:34.000Z,-4.97
2022-12-17T03:42:35.000Z,-5.06
2022-12-17T03:47:35.000Z,-4.9
2022-12-17T03:52:34.000Z,-4.65
2022-12-17T03:57:35.000Z,-4.75
2022-12-17T04:02:35.000Z,-4.89
2022-12-17T04:12:34.000Z,-4.98
2022-12-17T04:17:35.000Z,-4.99
2022-12-17T04:22:34.000Z,-4.87
2022-12-17T04:27:34.000Z,-4.83
2022-12-17T04:32:35.000Z,-4.82
2022-12-17T04:42:35.000Z,-4.9
2022-12-17T04:47:34.000Z,-4.88
2022-12-17T04:57:34.000Z,-4.73
2022-12-17T05:02:35.000Z,-4.8
2022-12-17T05:07:34.000Z,-4.71
2022-12-17T05:12:34.000Z,-4.47
2022-12-17T05:17:35.000Z,-4.29
2022-12-17T05:22:35.000Z,-4.14
2022-12-17T05:27:35.000Z,-4.27
2022-12-17T05:32:35.000Z,-4.34
2022-12-17T05:37:34.000Z,-4.5
2022-12-17T05:42:35.000Z,-4.45
2022-12-17T05:47:34.000Z,-4.25
2022-12-17T05:52:35.000Z,-4.11
2022-12-17T05:57:34.000Z,-3.99
2022-12-17T06:07:34.000Z,-4.36
2022-12-17T06:12:35.000Z,-4.18
2022-12-17T06:17:34.000Z,-4.18
2022-12-17T06:22:35.000Z,-4.08
2022-12-17T06:27:34.000Z,-3.95
2022-12-17T06:42:35.000Z,-4.43
2022-12-17T06:47:34.000Z,-4.43
2022-12-17T06:52:35.000Z,-4.5
2022-12-17T06:57:34.000Z,-4.32
2022-12-17T07:02:34.000Z,-4.34
2022-12-17T07:12:34.000Z,-4.29
2022-12-17T07:17:35.000Z,-4.16
2022-12-17T07:22:34.000Z,-4.16
2022-12-17T07:27:35.000Z,-4.23
2022-12-17T07:32:35.000Z,-4.35
2022-12-17T07:37:35.000Z,-4.4
2022-12-17T07:42:35.000Z,-4.48
2022-12-17T07:47:35.000Z,-4.24
2022-12-17T07:52:34.000Z,-4.05
2022-12-17T07:57:35.000Z,-3.9
2022-12-17T08:07:35.000Z,-3.61
2022-12-17T08:12:34.000Z,-3.66
2022-12-17T08:17:35.000Z,-3.35
2022-12-17T08:22:34.000Z,-3.41
2022-12-17T08:27:35.000Z,-3.62
2022-12-17T08:32:34.000Z,-3.62
2022-12-17T08:37:35.000Z,-3.71
2022-12-17T08:42:34.000Z,-3.61
2022-12-17T08:47:34.000Z,-3.33
2022-12-17T08:52:35.000Z,-3.19
2022-12-17T08:57:42.000Z,-3.01
2022-12-17T09:02:35.000Z,-2.86
2022-12-17T09:12:35.000Z,-3.02
2022-12-17T09:17:34.000Z,-2.92
2022-12-17T09:22:34.000Z,-2.94
2022-12-17T09:27:34.000Z,-3.29
2022-12-17T09:32:35.000Z,-3.18
2022-12-17T09:37:35.000Z,-3.18
2022-12-17T09:42:34.000Z,-3.16
2022-12-17T09:47:34.000Z,-2.89
2022-12-17T09:52:35.000Z,-2.89
2022-12-17T09:57:35.000Z,-2.69
2022-12-17T10:02:35.000Z,-2.64
2022-12-17T10:07:34.000Z,-2.51
2022-12-17T10:12:35.000Z,-2.51
2022-12-17T10:17:34.000Z,-2.76
2022-12-17T10:22:35.000Z,-2.78
2022-12-17T10:27:35.000Z,-2.61
2022-12-17T10:32:35.000Z,-2.48
2022-12-17T10:37:34.000Z,-2.29
2022-12-17T10:42:34.000Z,-2.15
2022-12-17T10:47:35.000Z,-2.12
2022-12-17T10:52:34.000Z,-2.11
2022-12-17T10:57:35.000Z,-2.18
2022-12-17T11:02:35.000Z,-2.18
2022-12-17T11:07:35.000Z,-2.1
2022-12-17T11:12:40.000Z,-2.14
2022-12-17T11:17:34.000Z,-2.21
2022-12-17T11:22:35.000Z,-2.06
2022-12-17T11:27:34.000Z,-1.98
2022-12-17T11:32:35.000Z,-2.33
2022-12-17T11:37:35.000Z,-2.37
2022-12-17T11:42:34.000Z,-2.18
2022-12-17T11:47:35.000Z,-2.03
2022-12-17T11:52:35.000Z,-2.06
2022-12-17T11:57:35.000Z,-2.08
2022-12-17T12:02:35.000Z,-2.19
2022-12-17T12:07:35.000Z,-2.34
2022-12-17T12:12:35.000Z,-2.46
2022-12-17T12:17:34.000Z,-2.46
2022-12-17T12:27:35.000Z,-2.54
2022-12-17T12:37:35.000Z,-2.44
2022-12-17T12:42:34.000Z,-2.72
2022-12-17T12:47:34.000Z,-2.72
2022-12-17T12:52:34.000Z,-2.92
2022-12-17T12:57:40.000Z,-2.76
2022-12-17T13:07:35.000Z,-3.13
2022-12-17T13:12:34.000Z,-3.06
2022-12-17T13:17:35.000Z,-2.97
2022-12-17T13:27:35.000Z,-2.85
2022-12-17T13:32:34.000Z,-2.94
2022-12-17T13:37:35.000Z,-3.02
2022-12-17T13:42:34.000Z,-2.92
2022-12-17T13:47:35.000Z,-2.92
2022-12-17T13:52:35.000Z,-2.95
2022-12-17T13:57:34.000Z,-3
2022-12-17T14:02:36.000Z,-3.22
2022-12-17T14:07:34.000Z,-3.33
2022-12-17T14:12:35.000Z,-3.33
2022-12-17T14:17:35.000Z,-3.39
2022-12-17T14:22:35.000Z,-3.46
2022-12-17T14:27:35.000Z,-3.64
2022-12-17T14:32:35.000Z,-3.73
2022-12-17T14:37:35.000Z,-3.75
2022-12-17T14:42:34.000Z,-3.78
2022-12-17T14:47:35.000Z,-3.66
2022-12-17T14:52:34.000Z,-3.52
2022-12-17T15:02:35.000Z,-3.52
2022-12-17T15:07:35.000Z,-3.64
2022-12-17T15:12:35.000Z,-3.67
2022-12-17T15:17:35.000Z,-3.66
2022-12-17T15:22:34.000Z,-3.72
2022-12-17T15:27:34.000Z,-3.73
2022-12-17T15:32:35.000Z,-3.73
2022-12-17T15:37:36.000Z,-3.86
2022-12-17T15:42:35.000Z,-3.97
2022-12-17T15:47:35.000Z,-3.9
2022-12-17T15:52:34.000Z,-3.77
2022-12-17T15:57:35.000Z,-3.68
2022-12-17T16:02:35.000Z,-3.77
2022-12-17T16:07:35.000Z,-3.72
2022-12-17T16:12:35.000Z,-3.42
2022-12-17T16:17:35.000Z,-3.22
2022-12-17T16:22:35.000Z,-3.15
2022-12-17T16:27:34.000Z,-3.26
2022-12-17T16:32:35.000Z,-3.45
2022-12-17T16:37:34.000Z,-3.77
2022-12-17T16:42:35.000Z,-3.88
2022-12-17T16:47:34.000Z,-3.88
2022-12-17T16:52:35.000Z,-3.91
2022-12-17T16:57:35.000Z,-3.93
2022-12-17T17:02:35.000Z,-3.91
2022-12-17T17:07:35.000Z,-3.97
2022-12-17T17:12:35.000Z,-3.99
2022-12-17T17:18:06.000Z,-3.78
2022-12-17T17:22:35.000Z,-3.52
2022-12-17T17:27:34.000Z,-3.63
2022-12-17T17:32:34.000Z,-3.78
2022-12-17T17:42:35.000Z,-4.08
2022-12-17T17:47:34.000Z,-4.01
2022-12-17T17:57:34.000Z,-3.95
2022-12-17T18:02:35.000Z,-3.91
2022-12-17T18:07:36.000Z,-3.88
2022-12-17T18:12:35.000Z,-4.02
2022-12-17T18:17:35.000Z,-4.15
2022-12-17T18:22:34.000Z,-3.96
2022-12-17T18:27:34.000Z,-3.57
2022-12-17T18:32:35.000Z,-3.16
2022-12-17T18:37:35.000Z,-2.9
2022-12-17T18:42:34.000Z,-3.12
2022-12-17T18:47:35.000Z,-3.03
2022-12-17T18:52:35.000Z,-3.03
2022-12-17T18:57:35.000Z,-3.02
2022-12-17T19:02:35.000Z,-2.91
2022-12-17T19:07:35.000Z,-2.84
2022-12-17T19:12:34.000Z,-2.91
2022-12-17T19:17:35.000Z,-3.23
2022-12-17T19:22:35.000Z,-3.45
2022-12-17T19:27:35.000Z,-3.58
2022-12-17T19:32:35.000Z,-3.77
2022-12-17T19:37:34.000Z,-3.85
2022-12-17T19:42:35.000Z,-3.93
2022-12-17T19:47:35.000Z,-3.98
2022-12-17T19:52:34.000Z,-3.97
2022-12-17T19:57:35.000Z,-3.76
2022-12-17T20:02:41.000Z,-3.81
2022-12-17T20:07:34.000Z,-3.81
2022-12-17T20:12:35.000Z,-3.88
2022-12-17T20:17:35.000Z,-4.01
2022-12-17T20:22:34.000Z,-4.03
2022-12-17T20:27:35.000Z,-4.18
2022-12-17T20:37:34.000Z,-4.4
2022-12-17T20:42:35.000Z,-4.47
2022-12-17T20:47:35.000Z,-4.38
2022-12-17T20:52:34.000Z,-4.39
2022-12-17T20:57:35.000Z,-4.4
2022-12-17T21:02:35.000Z,-4.4
2022-12-17T21:07:34.000Z,-4.34
2022-12-17T21:12:34.000Z,-4.35
2022-12-17T21:17:34.000Z,-4.47
2022-12-17T21:22:34.000Z,-4.51
2022-12-17T21:27:36.000Z,-4.57
2022-12-17T21:32:41.000Z,-4.57
2022-12-17T21:37:35.000Z,-4.61
2022-12-17T21:42:35.000Z,-4.69
2022-12-17T21:47:34.000Z,-4.72
2022-12-17T21:52:34.000Z,-4.76
2022-12-17T21:57:35.000Z,-4.83
2022-12-17T22:02:35.000Z,-4.83
2022-12-17T22:07:45.000Z,-4.77
2022-12-17T22:12:35.000Z,-4.77
2022-12-17T22:17:35.000Z,-4.7
2022-12-17T22:22:34.000Z,-4.79
2022-12-17T22:27:35.000Z,-4.86
2022-12-17T22:32:35.000Z,-4.97
2022-12-17T22:44:49.000Z,-4.88
2022-12-17T22:52:35.000Z,-4.98
2022-12-17T22:57:47.000Z,-4.9
2022-12-17T23:07:41.000Z,-4.94
2022-12-17T23:12:34.000Z,-5.05
2022-12-17T23:17:35.000Z,-5.12
2022-12-17T23:27:34.000Z,-5.06
2022-12-17T23:32:35.000Z,-5.14
2022-12-17T23:37:34.000Z,-5.18
2022-12-17T23:42:34.000Z,-5.18
2022-12-17T23:47:34.000Z,-5.21
2022-12-17T23:52:35.000Z,-5.31
2022-12-17T23:57:34.000Z,-5.32
